createdAt,value
2022-11-09T00:00:22.388Z,78.2
2022-11-09T00:05:22.436Z,78.3
2022-11-09T00:10:22.493Z,78.3
2022-11-09T00:15:22.374Z,78.3
2022-11-09T00:20:22.371Z,78.3
2022-11-09T00:25:22.504Z,78.3
2022-11-09T00:30:22.422Z,78.3
2022-11-09T00:35:22.326Z,78.5
2022-11-09T00:40:22.506Z,78.6
2022-11-09T00:45:22.445Z,78.7
2022-11-09T00:50:22.461Z,78.7
2022-11-09T00:55:22.538Z,78.9
2022-11-09T01:00:22.399Z,79.0
2022-11-09T01:05:22.406Z,79.1
2022-11-09T01:10:22.502Z,79.0
2022-11-09T01:15:22.367Z,79.2
2022-11-09T01:20:22.363Z,79.2
2022-11-09T01:25:22.476Z,79.4
2022-11-09T01:30:22.348Z,79.5
2022-11-09T01:35:22.255Z,79.6
2022-11-09T01:40:23.020Z,79.6
2022-11-09T01:45:22.421Z,79.7
2022-11-09T01:50:22.185Z,79.9
2022-11-09T01:55:22.352Z,79.9
2022-11-09T02:00:22.348Z,79.8
2022-11-09T02:05:22.159Z,79.8
2022-11-09T02:10:22.422Z,80.0
2022-11-09T02:15:22.237Z,80.0
2022-11-09T02:20:22.178Z,79.9
2022-11-09T02:25:22.286Z,79.9
2022-11-09T02:30:24.198Z,79.9
2022-11-09T02:35:22.121Z,80.1
2022-11-09T02:40:22.305Z,80.2
2022-11-09T02:45:22.389Z,80.3
2022-11-09T02:50:22.089Z,80.3
2022-11-09T02:55:22.097Z,80.2
2022-11-09T03:00:22.082Z,80.1
2022-11-09T03:05:28.551Z,80.1
2022-11-09T03:10:22.180Z,80.0
2022-11-09T03:15:22.081Z,80.0
2022-11-09T03:20:22.060Z,80.0
2022-11-09T03:25:22.155Z,80.1
2022-11-09T03:30:22.093Z,80.1
2022-11-09T03:35:22.051Z,80.3
2022-11-09T03:40:22.131Z,80.5
2022-11-09T03:45:22.028Z,80.4
2022-11-09T03:50:21.955Z,80.4
2022-11-09T03:55:22.259Z,80.1
2022-11-09T04:00:22.007Z,80.1
2022-11-09T04:05:21.943Z,80.1
2022-11-09T04:10:22.177Z,80.2
2022-11-09T04:15:22.042Z,80.4
2022-11-09T04:20:21.934Z,80.5
2022-11-09T04:25:22.089Z,80.6
2022-11-09T04:30:21.919Z,80.6
2022-11-09T04:35:21.972Z,80.7
2022-11-09T04:40:22.059Z,80.7
2022-11-09T04:45:21.885Z,80.7
2022-11-09T04:50:21.887Z,80.7
2022-11-09T04:55:22.115Z,80.6
2022-11-09T05:00:21.888Z,80.6
2022-11-09T05:05:21.853Z,80.6
2022-11-09T05:10:22.102Z,80.7
2022-11-09T05:15:21.855Z,80.8
2022-11-09T05:20:21.894Z,80.8
2022-11-09T05:25:21.968Z,80.8
2022-11-09T05:30:21.939Z,80.8
2022-11-09T05:35:21.884Z,80.8
2022-11-09T05:40:22.011Z,80.8
2022-11-09T05:45:41.519Z,80.8
2022-11-09T05:50:21.834Z,80.8
2022-11-09T05:55:21.793Z,80.9
2022-11-09T06:00:21.939Z,80.9
2022-11-09T06:05:22.014Z,81.0
2022-11-09T06:10:21.857Z,81.1
2022-11-09T06:15:21.823Z,81.1
2022-11-09T06:20:21.915Z,81.2
2022-11-09T06:25:22.018Z,81.2
2022-11-09T06:30:21.811Z,81.2
2022-11-09T06:35:23.937Z,81.3
2022-11-09T06:40:21.929Z,81.3
2022-11-09T06:45:21.705Z,81.4
2022-11-09T06:50:21.811Z,81.5
2022-11-09T06:55:27.693Z,81.6
2022-11-09T07:00:21.703Z,81.6
2022-11-09T07:05:21.780Z,81.6
2022-11-09T07:10:21.691Z,81.6
2022-11-09T07:15:21.754Z,81.7
2022-11-09T07:20:21.980Z,81.7
2022-11-09T07:25:21.584Z,81.7
2022-11-09T07:30:21.706Z,81.8
2022-11-09T07:35:21.888Z,81.8
2022-11-09T07:40:21.769Z,81.9
2022-11-09T07:45:21.509Z,81.9
2022-11-09T07:50:21.811Z,82.0
2022-11-09T07:55:21.803Z,82.1
2022-11-09T08:00:23.827Z,82.1
2022-11-09T08:05:21.635Z,82.0
2022-11-09T08:10:21.661Z,82.0
2022-11-09T08:15:21.610Z,82.0
2022-11-09T08:20:21.493Z,81.9
2022-11-09T08:25:21.508Z,81.8
2022-11-09T08:30:21.553Z,81.7
2022-11-09T08:35:21.599Z,81.6
2022-11-09T08:40:21.520Z,81.5
2022-11-09T08:45:21.480Z,81.4
2022-11-09T08:50:21.647Z,81.4
2022-11-09T08:55:21.496Z,81.2
2022-11-09T09:00:21.391Z,81.1
2022-11-09T09:05:21.701Z,81.0
2022-11-09T09:10:21.523Z,81.0
2022-11-09T09:15:21.503Z,80.9
2022-11-09T09:20:21.885Z,80.8
2022-11-09T09:25:21.549Z,80.7
2022-11-09T09:30:21.467Z,80.5
2022-11-09T09:35:21.660Z,80.6
2022-11-09T09:40:21.452Z,80.4
2022-11-09T09:45:21.518Z,80.2
2022-11-09T09:50:21.599Z,80.2
2022-11-09T09:55:21.418Z,80.1
2022-11-09T10:00:21.351Z,80.2
2022-11-09T10:05:21.496Z,80.0
2022-11-09T10:10:21.304Z,79.8
2022-11-09T10:15:21.341Z,79.7
2022-11-09T10:20:21.511Z,79.4
2022-11-09T10:25:37.444Z,79.1
2022-11-09T10:30:21.374Z,78.9
2022-11-09T10:35:22.164Z,78.9
2022-11-09T10:40:21.413Z,79.1
2022-11-09T10:45:21.390Z,78.4
2022-11-09T10:50:21.374Z,78.5
2022-11-09T10:55:21.411Z,78.4
2022-11-09T11:00:21.267Z,78.3
2022-11-09T11:05:21.272Z,78.0
2022-11-09T11:10:21.352Z,77.7
2022-11-09T11:15:21.450Z,77.7
2022-11-09T11:20:21.279Z,77.6
2022-11-09T11:25:21.291Z,77.6
2022-11-09T11:30:35.318Z,77.2
2022-11-09T11:35:21.281Z,76.9
2022-11-09T11:40:21.282Z,76.6
2022-11-09T11:50:21.159Z,76.5
2022-11-09T11:55:22.352Z,76.2
2022-11-09T12:00:21.224Z,76.2
2022-11-09T12:05:21.227Z,75.7
2022-11-09T12:10:21.427Z,75.7
2022-11-09T12:15:22.479Z,75.6
2022-11-09T12:20:21.345Z,75.3
2022-11-09T12:25:21.208Z,74.8
2022-11-09T12:30:21.075Z,74.4
2022-11-09T12:35:21.071Z,74.7
2022-11-09T12:40:21.215Z,74.6
2022-11-09T12:45:21.073Z,74.7
2022-11-09T12:50:21.093Z,74.5
2022-11-09T12:55:21.234Z,74.6
2022-11-09T13:00:21.415Z,74.4
2022-11-09T13:05:21.683Z,74.2
2022-11-09T13:10:21.031Z,74.2
2022-11-09T13:15:21.059Z,73.7
2022-11-09T13:20:48.286Z,73.8
2022-11-09T13:25:21.227Z,73.8
2022-11-09T13:30:21.047Z,73.8
2022-11-09T13:35:21.002Z,73.9
2022-11-09T13:40:21.156Z,73.9
2022-11-09T13:45:21.048Z,73.8
2022-11-09T13:50:21.145Z,73.7
2022-11-09T13:55:21.220Z,73.7
2022-11-09T14:00:20.969Z,73.6
2022-11-09T14:05:21.169Z,73.5
2022-11-09T14:10:21.127Z,73.5
2022-11-09T14:15:20.994Z,73.4
2022-11-09T14:20:20.925Z,73.4
2022-11-09T14:25:22.225Z,73.4
2022-11-09T14:30:20.975Z,73.4
2022-11-09T14:35:21.093Z,73.5
2022-11-09T14:40:21.411Z,73.4
2022-11-09T14:45:21.315Z,73.5
2022-11-09T14:50:21.398Z,73.5
2022-11-09T14:55:22.797Z,73.5
2022-11-09T15:00:20.859Z,73.5
2022-11-09T15:05:20.975Z,73.5
2022-11-09T15:10:21.934Z,73.5
2022-11-09T15:15:20.946Z,73.5
2022-11-09T15:20:20.826Z,73.6
2022-11-09T15:30:21.188Z,73.6
2022-11-09T15:35:21.683Z,73.7
2022-11-09T15:40:20.895Z,73.8
2022-11-09T15:45:21.203Z,73.8
2022-11-09T15:50:21.136Z,73.9
2022-11-09T15:55:20.907Z,74.0
2022-11-09T16:00:21.107Z,74.0
2022-11-09T16:05:20.947Z,74.1
2022-11-09T16:10:20.852Z,74.1
2022-11-09T16:15:20.829Z,74.1
2022-11-09T16:20:21.013Z,74.1
2022-11-09T16:25:20.743Z,74.2
2022-11-09T16:30:21.672Z,74.2
2022-11-09T16:35:27.098Z,74.2
2022-11-09T16:40:20.817Z,74.2
2022-11-09T16:45:21.751Z,74.3
2022-11-09T16:50:20.720Z,74.4
2022-11-09T16:55:20.816Z,74.5
2022-11-09T17:00:21.541Z,74.6
2022-11-09T17:05:20.779Z,74.8
2022-11-09T17:10:20.769Z,74.9
2022-11-09T17:15:20.917Z,74.9
2022-11-09T17:20:20.597Z,75.0
2022-11-09T17:25:20.711Z,75.1
2022-11-09T17:30:21.456Z,75.2
2022-11-09T17:35:21.705Z,75.2
2022-11-09T17:40:20.594Z,75.3
2022-11-09T17:55:20.681Z,75.3
2022-11-09T18:00:20.660Z,75.7
2022-11-09T18:05:20.890Z,75.7
2022-11-09T18:10:20.827Z,75.7
2022-11-09T18:15:20.645Z,75.8
2022-11-09T18:20:20.738Z,75.8
2022-11-09T18:25:20.627Z,76.0
2022-11-09T18:30:20.626Z,76.0
2022-11-09T18:35:20.651Z,76.1
2022-11-09T18:40:20.442Z,76.2
2022-11-09T18:45:20.624Z,76.3
2022-11-09T18:50:20.626Z,76.3
2022-11-09T18:55:21.957Z,76.3
2022-11-09T19:00:20.999Z,76.4
2022-11-09T19:05:20.756Z,76.4
2022-11-09T19:10:20.468Z,76.4
2022-11-09T19:15:21.848Z,76.6
2022-11-09T19:20:20.462Z,76.8
2022-11-09T19:25:20.463Z,76.8
2022-11-09T19:30:20.476Z,76.8
2022-11-09T19:35:25.561Z,76.8
2022-11-09T19:40:20.694Z,76.9
2022-11-09T19:45:20.527Z,76.9
2022-11-09T19:50:20.613Z,77.0
2022-11-09T19:55:20.955Z,77.1
2022-11-09T20:00:20.572Z,77.1
2022-11-09T20:05:20.920Z,77.1
2022-11-09T20:10:20.695Z,77.2
2022-11-09T20:15:20.541Z,77.3
2022-11-09T20:20:23.511Z,77.3
2022-11-09T20:25:20.391Z,77.5
2022-11-09T20:30:20.399Z,77.5
2022-11-09T20:35:20.689Z,77.6
2022-11-09T20:40:20.298Z,77.6
2022-11-09T20:45:20.424Z,77.5
2022-11-09T20:50:20.498Z,77.6
2022-11-09T20:55:20.468Z,77.6
2022-11-09T21:00:24.196Z,77.6
2022-11-09T21:05:20.361Z,77.7
2022-11-09T21:10:20.417Z,77.7
2022-11-09T21:15:20.499Z,77.8
2022-11-09T21:20:20.267Z,77.9
2022-11-09T21:25:20.314Z,78.1
2022-11-09T21:30:20.499Z,78.2
2022-11-09T21:35:20.336Z,78.3
2022-11-09T21:40:20.360Z,78.3
2022-11-09T21:45:20.754Z,78.4
2022-11-09T21:50:20.453Z,78.5
2022-11-09T21:55:20.389Z,78.5
2022-11-09T22:00:20.459Z,78.6
2022-11-09T22:05:23.018Z,78.6
2022-11-09T22:10:20.150Z,78.7
2022-11-09T22:15:20.323Z,78.6
2022-11-09T22:20:20.121Z,78.6
2022-11-09T22:25:20.143Z,78.6
2022-11-09T22:30:20.656Z,78.7
2022-11-09T22:35:20.187Z,78.6
2022-11-09T22:40:20.146Z,78.6
2022-11-09T22:45:20.294Z,78.6
2022-11-09T22:50:20.101Z,78.6
2022-11-09T22:55:20.139Z,78.6
2022-11-09T23:00:20.355Z,78.6
2022-11-09T23:05:20.186Z,78.6
2022-11-09T23:10:20.154Z,78.6
2022-11-09T23:15:20.223Z,78.6
2022-11-09T23:20:20.112Z,78.7
2022-11-09T23:25:20.106Z,78.6
2022-11-09T23:30:20.222Z,78.7
2022-11-09T23:35:20.200Z,78.7
2022-11-09T23:40:20.082Z,78.8
2022-11-09T23:45:19.996Z,78.9
2022-11-09T23:50:20.021Z,78.9
2022-11-09T23:55:19.974Z,78.9
